createdAt,value
2023-04-23T00:03:13.564Z,8.60
2023-04-23T00:06:18.293Z,8.77
2023-04-23T00:09:35.244Z,8.82
2023-04-23T00:12:42.195Z,8.40
2023-04-23T00:19:16.584Z,7.18
2023-04-23T00:22:28.306Z,8.15
2023-04-23T00:25:31.740Z,9.13
2023-04-23T00:28:35.153Z,7.70
2023-04-23T00:32:06.413Z,9.88
2023-04-23T00:35:26.620Z,9.75
2023-04-23T00:38:55.135Z,10.02
2023-04-23T00:42:13.227Z,9.77
2023-04-23T00:45:41.342Z,9.95
2023-04-23T00:48:46.949Z,11.98
2023-04-23T00:51:53.680Z,10.70
2023-04-23T00:54:57.405Z,11.57
2023-04-23T00:58:07.212Z,10.85
2023-04-23T01:01:14.713Z,10.65
2023-04-23T01:04:23.417Z,9.20
2023-04-23T01:07:35.212Z,9.65
2023-04-23T01:10:39.517Z,8.27
2023-04-23T01:13:48.728Z,9.55
2023-04-23T01:17:28.739Z,9.25
2023-04-23T01:21:21.853Z,8.73
2023-04-23T01:24:25.209Z,8.45
2023-04-23T01:27:46.908Z,9.25
2023-04-23T01:30:53.660Z,9.65
2023-04-23T01:33:57.465Z,7.88
2023-04-23T01:37:01.066Z,9.02
2023-04-23T01:40:09.139Z,8.27
2023-04-23T01:43:12.391Z,9.82
2023-04-23T01:46:20.008Z,8.93
2023-04-23T01:49:27.191Z,8.25
2023-04-23T01:52:30.432Z,10.23
2023-04-23T01:55:35.686Z,8.18
2023-04-23T01:58:44.016Z,7.75
2023-04-23T02:02:05.729Z,7.47
2023-04-23T02:05:18.911Z,7.28
2023-04-23T02:08:37.645Z,6.55
2023-04-23T02:12:06.576Z,9.05
2023-04-23T02:15:21.787Z,5.95
2023-04-23T02:18:25.329Z,6.30
2023-04-23T02:21:29.143Z,4.85
2023-04-23T02:24:32.418Z,6.32
2023-04-23T02:27:36.114Z,7.43
2023-04-23T02:30:46.660Z,4.18
2023-04-23T02:34:03.211Z,2.10
2023-04-23T02:37:06.896Z,2.60
2023-04-23T02:41:01.133Z,2.25
2023-04-23T02:44:04.525Z,4.60
2023-04-23T02:47:07.911Z,3.22
2023-04-23T02:50:11.564Z,3.70
2023-04-23T02:53:21.496Z,2.50
2023-04-23T02:56:56.206Z,2.20
2023-04-23T03:00:24.831Z,3.65
2023-04-23T03:03:32.518Z,2.25
2023-04-23T03:06:41.184Z,3.63
2023-04-23T03:09:45.158Z,2.45
2023-04-23T03:13:04.115Z,1.70
2023-04-23T03:16:13.338Z,3.10
2023-04-23T03:19:55.216Z,3.03
2023-04-23T03:22:59.299Z,1.90
2023-04-23T03:26:09.879Z,1.60
2023-04-23T03:29:13.298Z,1.52
2023-04-23T03:32:16.993Z,2.40
2023-04-23T03:35:22.750Z,3.25
2023-04-23T03:38:26.775Z,3.85
2023-04-23T03:41:35.633Z,1.77
2023-04-23T03:48:42.427Z,2.33
2023-04-23T03:51:52.827Z,2.05
2023-04-23T03:55:21.592Z,1.73
2023-04-23T03:58:55.675Z,1.45
2023-04-23T04:02:14.703Z,2.50
2023-04-23T04:05:25.640Z,2.33
2023-04-23T04:08:30.639Z,1.73
2023-04-23T04:12:24.362Z,1.77
2023-04-23T04:15:33.611Z,1.92
2023-04-23T04:18:36.884Z,2.20
2023-04-23T04:21:43.279Z,1.52
2023-04-23T04:24:49.252Z,1.42
2023-04-23T04:27:52.555Z,1.90
2023-04-23T04:31:22.737Z,1.67
2023-04-23T04:34:30.948Z,2.50
2023-04-23T04:37:35.015Z,2.25
2023-04-23T04:40:38.505Z,1.85
2023-04-23T04:43:42.079Z,1.30
2023-04-23T04:47:14.332Z,1.40
2023-04-23T04:50:20.059Z,3.45
2023-04-23T04:53:31.293Z,1.63
2023-04-23T04:56:39.589Z,1.73
2023-04-23T05:00:02.990Z,2.15
2023-04-23T05:03:10.981Z,1.98
2023-04-23T05:06:15.903Z,1.20
2023-04-23T05:09:19.159Z,1.25
2023-04-23T05:12:44.466Z,1.75
2023-04-23T05:19:25.563Z,1.52
2023-04-23T05:22:54.167Z,1.75
2023-04-23T05:25:58.999Z,2.05
2023-04-23T05:29:02.229Z,1.60
2023-04-23T05:32:05.660Z,1.52
2023-04-23T05:35:58.771Z,2.30
2023-04-23T05:39:05.529Z,1.83
2023-04-23T05:42:45.536Z,1.98
2023-04-23T05:45:48.794Z,1.80
2023-04-23T05:48:52.161Z,1.67
2023-04-23T05:52:20.177Z,1.40
2023-04-23T05:55:41.621Z,1.85
2023-04-23T05:59:09.751Z,2.33
2023-04-23T06:02:43.957Z,2.42
2023-04-23T06:05:48.718Z,2.13
2023-04-23T06:09:05.183Z,1.98
2023-04-23T06:12:33.032Z,2.33
2023-04-23T06:15:36.266Z,1.70
2023-04-23T06:18:39.891Z,2.05
2023-04-23T06:21:47.959Z,3.00
2023-04-23T06:25:16.129Z,2.10
2023-04-23T06:28:46.582Z,2.42
2023-04-23T06:32:08.791Z,1.90
2023-04-23T06:35:18.043Z,1.55
2023-04-23T06:38:24.575Z,1.63
2023-04-23T06:41:28.020Z,2.03
2023-04-23T06:44:47.495Z,1.23
2023-04-23T06:47:51.552Z,2.33
2023-04-23T06:50:56.762Z,3.00
2023-04-23T06:54:00.068Z,1.85
2023-04-23T06:57:03.609Z,2.47
2023-04-23T07:00:09.776Z,2.55
2023-04-23T07:03:16.476Z,4.38
2023-04-23T07:06:49.602Z,2.35
2023-04-23T07:09:53.005Z,2.50
2023-04-23T07:12:56.659Z,3.40
2023-04-23T07:15:59.914Z,4.30
2023-04-23T07:19:03.416Z,3.90
2023-04-23T07:22:09.447Z,6.22
2023-04-23T07:25:50.366Z,2.90
2023-04-23T07:28:53.871Z,3.85
2023-04-23T07:31:57.400Z,2.33
2023-04-23T07:35:00.744Z,2.03
2023-04-23T07:38:04.939Z,1.80
2023-04-23T07:41:08.180Z,4.88
2023-04-23T07:44:11.544Z,2.67
2023-04-23T07:47:15.146Z,3.10
2023-04-23T07:50:19.799Z,2.63
2023-04-23T07:53:23.448Z,10.32
2023-04-23T07:56:27.871Z,5.30
2023-04-23T07:59:31.319Z,8.38
2023-04-23T08:02:34.736Z,2.80
2023-04-23T08:05:39.701Z,21.25
2023-04-23T08:08:47.961Z,6.28
2023-04-23T08:11:55.188Z,2.75
2023-04-23T08:18:12.213Z,3.75
2023-04-23T08:21:20.778Z,2.53
2023-04-23T08:24:27.931Z,2.05
2023-04-23T08:27:34.578Z,3.90
2023-04-23T08:30:42.847Z,3.33
2023-04-23T08:33:47.024Z,2.67
2023-04-23T08:37:01.339Z,2.78
2023-04-23T08:40:05.795Z,1.80
2023-04-23T08:43:17.278Z,2.55
2023-04-23T08:46:23.965Z,3.45
2023-04-23T08:49:34.219Z,3.15
2023-04-23T08:52:41.872Z,3.67
2023-04-23T08:55:51.663Z,3.42
2023-04-23T08:59:04.599Z,2.70
2023-04-23T09:02:10.729Z,2.67
2023-04-23T09:05:15.724Z,4.03
2023-04-23T09:08:20.145Z,6.75
2023-04-23T09:11:37.782Z,3.88
2023-04-23T09:15:11.334Z,2.75
2023-04-23T09:18:14.813Z,4.68
2023-04-23T09:21:18.285Z,4.63
2023-04-23T09:24:23.979Z,1.90
2023-04-23T09:27:30.042Z,2.75
2023-04-23T09:30:45.781Z,3.58
2023-04-23T09:33:56.158Z,3.10
2023-04-23T09:37:02.628Z,2.13
2023-04-23T09:40:09.372Z,3.20
2023-04-23T09:43:16.063Z,3.28
2023-04-23T09:46:19.627Z,4.53
2023-04-23T09:49:23.323Z,2.20
2023-04-23T09:52:26.963Z,9.48
2023-04-23T09:55:42.678Z,2.20
2023-04-23T09:58:48.181Z,2.97
2023-04-23T10:01:54.294Z,6.93
2023-04-23T10:05:06.924Z,3.75
2023-04-23T10:08:15.360Z,2.92
2023-04-23T10:11:20.984Z,2.97
2023-04-23T10:14:26.687Z,3.65
2023-04-23T10:17:30.241Z,3.63
2023-04-23T10:20:36.758Z,2.55
2023-04-23T10:23:43.773Z,6.43
2023-04-23T10:26:48.303Z,4.28
2023-04-23T10:29:52.172Z,3.38
2023-04-23T10:32:56.405Z,4.07
2023-04-23T10:36:00.546Z,3.55
2023-04-23T10:39:09.310Z,3.47
2023-04-23T10:42:16.913Z,3.38
2023-04-23T10:45:25.292Z,3.25
2023-04-23T10:49:10.542Z,3.22
2023-04-23T10:52:27.331Z,3.67
2023-04-23T10:55:32.554Z,4.18
2023-04-23T10:58:52.565Z,3.58
2023-04-23T11:02:00.907Z,3.45
2023-04-23T11:05:10.417Z,4.47
2023-04-23T11:08:19.566Z,4.88
2023-04-23T11:11:42.166Z,5.88
2023-04-23T11:14:50.735Z,5.00
2023-04-23T11:17:54.050Z,4.88
2023-04-23T11:20:59.991Z,5.38
2023-04-23T11:24:06.870Z,5.40
2023-04-23T11:27:12.673Z,6.60
2023-04-23T11:30:21.469Z,6.90
2023-04-23T11:33:24.820Z,5.90
2023-04-23T11:36:28.906Z,6.35
2023-04-23T11:39:35.492Z,7.55
2023-04-23T11:42:48.606Z,7.63
2023-04-23T11:45:51.814Z,9.20
2023-04-23T11:48:55.265Z,13.18
2023-04-23T11:52:09.512Z,20.42
2023-04-23T11:55:14.048Z,25.50
2023-04-23T11:58:21.761Z,36.50
2023-04-23T12:01:51.145Z,27.15
2023-04-23T12:05:06.971Z,19.02
2023-04-23T12:08:21.176Z,20.33
2023-04-23T12:11:27.563Z,16.13
2023-04-23T12:14:31.541Z,17.05
2023-04-23T12:17:35.288Z,18.77
2023-04-23T12:20:41.083Z,17.40
2023-04-23T12:23:45.558Z,13.80
2023-04-23T12:27:20.807Z,10.90
2023-04-23T12:30:24.312Z,13.32
2023-04-23T12:33:31.160Z,14.85
2023-04-23T12:36:36.696Z,17.52
2023-04-23T12:39:40.129Z,13.60
2023-04-23T12:42:47.841Z,13.32
2023-04-23T12:45:57.300Z,14.20
2023-04-23T12:49:03.791Z,15.55
2023-04-23T12:52:13.859Z,15.52
2023-04-23T12:55:17.567Z,15.85
2023-04-23T12:58:32.144Z,14.63
2023-04-23T13:01:37.904Z,14.93
2023-04-23T13:04:43.835Z,13.02
2023-04-23T13:07:47.178Z,13.55
2023-04-23T13:10:55.037Z,17.77
2023-04-23T13:14:01.241Z,18.65
2023-04-23T13:17:19.552Z,21.35
2023-04-23T13:20:26.935Z,20.08
2023-04-23T13:23:36.092Z,17.45
2023-04-23T13:26:48.758Z,14.50
2023-04-23T13:29:57.377Z,16.05
2023-04-23T13:33:12.860Z,14.18
2023-04-23T13:36:21.277Z,13.85
2023-04-23T13:39:33.632Z,10.38
2023-04-23T13:42:39.896Z,10.57
2023-04-23T13:45:43.297Z,9.50
2023-04-23T13:48:54.893Z,8.18
2023-04-23T13:52:13.380Z,7.50
2023-04-23T13:55:19.965Z,8.80
2023-04-23T13:58:24.454Z,6.95
2023-04-23T14:01:27.846Z,7.70
2023-04-23T14:04:36.426Z,6.35
2023-04-23T14:07:43.816Z,5.95
2023-04-23T14:10:54.244Z,6.30
2023-04-23T14:14:01.806Z,7.60
2023-04-23T14:20:16.253Z,4.25
2023-04-23T14:23:28.168Z,3.40
2023-04-23T14:26:47.285Z,3.90
2023-04-23T14:30:05.913Z,3.17
2023-04-23T14:33:26.973Z,3.78
2023-04-23T14:36:30.484Z,4.03
2023-04-23T14:39:41.437Z,4.40
2023-04-23T14:42:48.185Z,3.72
2023-04-23T14:45:52.639Z,5.60
2023-04-23T14:48:56.251Z,6.05
2023-04-23T14:52:11.943Z,4.60
2023-04-23T14:55:18.375Z,4.20
2023-04-23T14:58:21.660Z,4.25
2023-04-23T15:01:49.686Z,4.80
2023-04-23T15:04:53.096Z,4.95
2023-04-23T15:07:57.146Z,2.58
2023-04-23T15:11:15.199Z,4.05
2023-04-23T15:14:32.799Z,4.30
2023-04-23T15:17:40.419Z,6.30
2023-04-23T15:20:47.391Z,5.68
2023-04-23T15:23:55.348Z,5.10
2023-04-23T15:27:04.250Z,5.97
2023-04-23T15:30:23.589Z,10.18
2023-04-23T15:33:52.084Z,10.63
2023-04-23T15:36:55.407Z,10.45
2023-04-23T15:40:01.712Z,6.18
2023-04-23T15:43:14.236Z,7.50
2023-04-23T15:46:42.836Z,10.23
2023-04-23T15:49:51.699Z,12.60
2023-04-23T15:52:55.066Z,10.70
2023-04-23T15:56:02.735Z,11.93
2023-04-23T15:59:06.703Z,7.72
2023-04-23T16:02:10.550Z,5.25
2023-04-23T16:05:14.122Z,4.88
2023-04-23T16:08:23.430Z,3.28
2023-04-23T16:11:38.881Z,3.35
2023-04-23T16:14:43.401Z,2.67
2023-04-23T16:17:50.379Z,2.92
2023-04-23T16:20:53.748Z,4.90
2023-04-23T16:23:57.504Z,4.30
2023-04-23T16:27:06.975Z,4.15
2023-04-23T16:30:14.228Z,3.10
2023-04-23T16:33:17.484Z,3.40
2023-04-23T16:36:23.641Z,3.85
2023-04-23T16:39:27.480Z,3.28
2023-04-23T16:42:38.080Z,3.30
2023-04-23T16:45:50.415Z,3.88
2023-04-23T16:48:53.732Z,4.38
2023-04-23T16:51:57.298Z,3.80
2023-04-23T16:55:00.804Z,4.32
2023-04-23T16:58:04.903Z,4.30
2023-04-23T17:01:08.279Z,4.93
2023-04-23T17:04:12.437Z,4.15
2023-04-23T17:07:15.967Z,4.13
2023-04-23T17:10:20.130Z,4.00
2023-04-23T17:13:23.525Z,3.85
2023-04-23T17:16:27.399Z,3.72
2023-04-23T17:19:30.857Z,3.08
2023-04-23T17:22:34.171Z,3.70
2023-04-23T17:25:37.427Z,3.45
2023-04-23T17:28:43.620Z,3.83
2023-04-23T17:31:47.373Z,5.57
2023-04-23T17:34:59.351Z,5.95
2023-04-23T17:38:10.095Z,7.10
2023-04-23T17:41:13.418Z,7.38
2023-04-23T17:44:16.754Z,6.28
2023-04-23T17:47:20.098Z,4.97
2023-04-23T17:50:23.492Z,8.18
2023-04-23T17:53:26.891Z,7.38
2023-04-23T17:56:30.249Z,8.18
2023-04-23T17:59:33.508Z,7.90
2023-04-23T18:02:40.884Z,7.18
2023-04-23T18:05:44.349Z,5.93
2023-04-23T18:08:48.010Z,6.13
2023-04-23T18:11:51.530Z,4.35
2023-04-23T18:14:54.853Z,6.03
2023-04-23T18:17:58.283Z,4.07
2023-04-23T18:21:03.622Z,3.63
2023-04-23T18:24:07.139Z,4.75
2023-04-23T18:27:10.617Z,3.20
2023-04-23T18:30:15.148Z,3.03
2023-04-23T18:33:35.807Z,3.72
2023-04-23T18:36:42.611Z,4.57
2023-04-23T18:39:46.422Z,4.20
2023-04-23T18:42:49.765Z,3.88
2023-04-23T18:45:53.213Z,2.88
2023-04-23T18:49:34.299Z,4.13
2023-04-23T18:52:37.874Z,3.33
2023-04-23T18:55:41.356Z,3.72
2023-04-23T18:58:44.655Z,3.85
2023-04-23T19:01:51.530Z,3.50
2023-04-23T19:04:54.923Z,3.50
2023-04-23T19:07:58.235Z,3.78
2023-04-23T19:11:01.665Z,3.67
2023-04-23T19:14:05.539Z,4.45
2023-04-23T19:17:08.980Z,5.13
2023-04-23T19:20:15.625Z,4.53
2023-04-23T19:23:19.246Z,4.97
2023-04-23T19:26:22.591Z,4.65
2023-04-23T19:29:25.895Z,4.93
2023-04-23T19:32:30.594Z,3.83
2023-04-23T19:35:34.337Z,3.80
2023-04-23T19:38:37.795Z,3.40
2023-04-23T19:41:41.317Z,3.70
2023-04-23T19:44:44.716Z,3.60
2023-04-23T19:47:48.680Z,2.42
2023-04-23T19:50:52.234Z,2.92
2023-04-23T19:53:56.878Z,2.78
2023-04-23T19:57:00.227Z,2.85
2023-04-23T20:00:05.788Z,3.30
2023-04-23T20:03:09.413Z,3.38
2023-04-23T20:06:13.037Z,2.67
2023-04-23T20:09:19.257Z,3.25
2023-04-23T20:12:22.639Z,3.10
2023-04-23T20:15:26.536Z,3.90
2023-04-23T20:18:34.877Z,3.53
2023-04-23T20:21:39.590Z,3.30
2023-04-23T20:24:47.001Z,3.63
2023-04-23T20:27:51.629Z,3.58
2023-04-23T20:30:54.920Z,3.10
2023-04-23T20:33:58.803Z,3.45
2023-04-23T20:37:02.826Z,3.13
2023-04-23T20:40:06.783Z,4.18
2023-04-23T20:43:10.254Z,3.33
2023-04-23T20:46:13.776Z,4.82
2023-04-23T20:49:17.205Z,4.25
2023-04-23T20:52:20.494Z,3.65
2023-04-23T20:55:23.878Z,3.42
2023-04-23T20:58:27.361Z,3.83
2023-04-23T21:01:30.836Z,3.53
2023-04-23T21:04:34.328Z,3.60
2023-04-23T21:07:37.748Z,3.47
2023-04-23T21:10:42.104Z,3.10
2023-04-23T21:13:48.656Z,3.45
2023-04-23T21:16:52.074Z,3.85
2023-04-23T21:19:55.439Z,3.50
2023-04-23T21:22:58.898Z,4.43
2023-04-23T21:26:02.553Z,3.67
2023-04-23T21:29:05.938Z,3.80
2023-04-23T21:32:10.071Z,3.65
2023-04-23T21:35:13.466Z,3.75
2023-04-23T21:38:16.779Z,4.18
2023-04-23T21:41:20.350Z,4.30
2023-04-23T21:44:23.772Z,3.00
2023-04-23T21:47:27.074Z,4.35
2023-04-23T21:50:32.202Z,3.63
2023-04-23T21:53:35.770Z,4.20
2023-04-23T21:56:39.467Z,3.53
2023-04-23T21:59:43.325Z,2.13
2023-04-23T22:02:47.969Z,2.65
2023-04-23T22:05:53.066Z,2.42
2023-04-23T22:08:57.555Z,1.60
2023-04-23T22:12:02.674Z,1.58
2023-04-23T22:15:11.846Z,1.90
2023-04-23T22:18:16.234Z,1.70
2023-04-23T22:21:19.599Z,1.98
2023-04-23T22:24:23.520Z,1.38
2023-04-23T22:27:26.917Z,1.55
2023-04-23T22:30:30.318Z,1.35
2023-04-23T22:33:33.720Z,1.80
2023-04-23T22:36:37.132Z,2.00
2023-04-23T22:39:40.775Z,1.83
2023-04-23T22:42:45.187Z,3.17
2023-04-23T22:45:48.513Z,2.85
2023-04-23T22:48:53.418Z,3.63
2023-04-23T22:51:56.843Z,2.03
2023-04-23T22:55:00.208Z,4.57
2023-04-23T22:58:03.841Z,4.15
2023-04-23T23:01:07.497Z,2.97
2023-04-23T23:04:11.641Z,2.40
2023-04-23T23:07:15.684Z,2.13
2023-04-23T23:10:22.180Z,1.92
2023-04-23T23:13:26.605Z,3.20
2023-04-23T23:16:31.234Z,2.70
2023-04-23T23:19:34.607Z,2.20
2023-04-23T23:22:56.598Z,2.58
2023-04-23T23:26:00.290Z,3.17
2023-04-23T23:29:04.100Z,3.55
2023-04-23T23:32:07.525Z,5.18
2023-04-23T23:35:10.988Z,3.75
2023-04-23T23:38:14.770Z,2.63
2023-04-23T23:41:18.256Z,2.75
2023-04-23T23:44:21.585Z,4.82
2023-04-23T23:47:24.970Z,2.22
2023-04-23T23:50:28.469Z,3.72
2023-04-23T23:53:31.900Z,5.35
2023-04-23T23:56:35.351Z,2.00
2023-04-23T23:59:38.710Z,3.55
